Bei Facebook empfehlenBei Twitter postenGoogle plusPinterest

Das Wetter im Erzgebirge am 07.12.2015

Wetter und Klima am 07.12.2015 Holzhau im Erzgebirge (630m ü.NN)
Letzte gemessene Temperatur und Uhrzeit der Messung23:45:00 Uhr4.10 °C
Temperatur (Maximum / Höchstwert) und Uhrzeit der Messung13:45:00 Uhr10.10 °C
Temperatur (Minimum / Tiefstwert) und Uhrzeit der Messung02:30:003.80 °C
Errechneter Absolutwert der Temperaturschwankungen zwischen Tmin und Tmax des Tages6.30 K
Errechnete Tagesmitteltemperatur6.78750 °C
Gesamt - Niederschlag des Tages (in flüssiger Form)0.00 Liter / m²
Luftdruck (Maximum / Höchstwert) und Zeitpunkt der Messung21:45:00 Uhr1029.60 hPa
Luftdruck (Minimum / Tiefstwert) und Zeitpunkt der Messung00:45:00 Uhr1024.00 hPa
Errechneter Absolutwert der Luftdruckschwankungen des Tages5.60 hPa
Höchste gemessene Windgeschwindigkeit und Uhrzeit der Messung11:30:00 Uhr7.92 km/h
Errechnete Windhäufigkeit in Relation zu den Messwerten des Tages15.62500 %
Niedrigste Windkühle (Windchill) und Zeitpunkt der Messung02:30:00 Uhr3.80 °C
Taupunkt (Maximum / Höchstwert) und Uhrzeit der Messung13:30:00 Uhr8.70 °C
Taupunkt (Minimum / Tiefstwert) und Uhrzeit der Messung02:30:002.20 °C
Anzahl der automatisch eingelesenen Messwerte 96

Detaillierte Wetter- und Klima- Messwerte für den 07.12.2015 in Holzhau im Erzgebirge (630m ü.NN)
ZeitTemperaturLuftdruckRel. LuftfeuchteWindWindrichtungWindchillTaupunktNiederschlag l/m²
23:45:004.10 °C1029.40 hPa94.00 %3.60 km/hSO4.10 °C3.20 °C 
23:30:004.30 °C1029.50 hPa93.00 %3.60 km/hOSO4.30 °C3.30 °C 
23:15:004.90 °C1029.40 hPa93.00 %3.60 km/hSO4.90 °C3.90 °C 
23:00:005.00 °C1029.50 hPa93.00 %4.00 °C 
22:45:005.50 °C1029.40 hPa94.00 %4.60 °C 
22:30:005.50 °C1029.50 hPa93.00 %3.24 km/hOSO5.50 °C4.50 °C 
22:15:005.40 °C1029.40 hPa93.00 %2.16 km/hOSO5.40 °C4.40 °C 
22:00:005.20 °C1029.50 hPa93.00 %3.60 km/hSO5.20 °C4.20 °C 
21:45:005.30 °C1029.60 hPa93.00 %4.30 °C 
21:30:005.40 °C1029.50 hPa93.00 %4.40 °C 
21:15:005.80 °C1029.60 hPa93.00 %4.80 °C 
21:00:005.90 °C1029.50 hPa93.00 %1.44 km/hSO5.90 °C4.90 °C 
20:45:005.90 °C1029.50 hPa93.00 %4.90 °C 
20:30:005.90 °C1029.50 hPa93.00 %1.08 km/hOSO5.90 °C4.90 °C 
20:15:005.80 °C1029.40 hPa92.00 %4.60 °C 
20:00:005.80 °C1029.40 hPa92.00 %4.60 °C 
19:45:005.70 °C1029.30 hPa92.00 %1.44 km/hOSO5.70 °C4.50 °C 
19:30:006.10 °C1029.10 hPa92.00 %4.90 °C 
19:15:006.40 °C1029.00 hPa92.00 %5.20 °C 
19:00:006.50 °C1028.80 hPa92.00 %5.30 °C 
18:45:006.60 °C1028.90 hPa92.00 %5.40 °C 
18:30:006.40 °C1029.00 hPa91.00 %5.00 °C 
18:15:006.60 °C1028.90 hPa91.00 %5.20 °C 
18:00:007.10 °C1029.00 hPa90.00 %5.60 °C 
17:45:007.50 °C1028.80 hPa90.00 %6.00 °C 
17:30:007.90 °C1029.00 hPa90.00 %6.40 °C 
17:15:008.10 °C1029.00 hPa90.00 %6.60 °C 
17:00:008.30 °C1029.10 hPa90.00 %6.80 °C 
16:45:008.40 °C1029.00 hPa89.00 %6.70 °C 
16:30:008.60 °C1028.60 hPa89.00 %6.90 °C 
16:15:008.90 °C1028.70 hPa89.00 %7.20 °C 
16:00:009.10 °C1028.60 hPa89.00 %7.40 °C 
15:45:009.40 °C1028.50 hPa89.00 %7.70 °C 
15:30:009.50 °C1028.40 hPa89.00 %7.80 °C 
15:15:009.60 °C1028.20 hPa89.00 %7.90 °C 
15:00:009.60 °C1027.90 hPa90.00 %1.80 km/hSSW9.60 °C8.00 °C 
14:45:009.80 °C1027.80 hPa90.00 %8.20 °C 
14:30:009.80 °C1027.60 hPa90.00 %8.20 °C 
14:15:009.80 °C1027.80 hPa90.00 %8.20 °C 
14:00:0010.00 °C1027.80 hPa90.00 %8.40 °C 
13:45:0010.10 °C1027.70 hPa90.00 %8.50 °C 
13:30:0010.10 °C1027.90 hPa91.00 %8.70 °C 
13:15:0010.00 °C1028.20 hPa91.00 %8.60 °C 
13:00:009.70 °C1028.20 hPa91.00 %8.30 °C 
12:45:009.60 °C1028.10 hPa92.00 %8.40 °C 
12:30:009.60 °C1028.10 hPa92.00 %8.40 °C 
12:15:009.50 °C1028.10 hPa92.00 %8.30 °C 
12:00:009.40 °C1028.20 hPa93.00 %8.30 °C 
11:45:008.90 °C1028.10 hPa93.00 %7.80 °C 
11:30:008.90 °C1028.20 hPa93.00 %7.92 km/hWNW7.70 °C7.80 °C 
11:15:008.90 °C1028.00 hPa94.00 %8.00 °C 
11:00:008.70 °C1028.00 hPa93.00 %7.60 °C 
10:45:008.40 °C1027.90 hPa94.00 %7.50 °C 
10:30:008.10 °C1028.00 hPa94.00 %2.52 km/hWNW8.10 °C7.20 °C 
10:15:008.10 °C1027.80 hPa94.00 %7.20 °C 
10:00:007.80 °C1027.90 hPa94.00 %3.96 km/hW7.80 °C6.90 °C 
09:45:007.30 °C1028.10 hPa94.00 %6.40 °C 
09:30:007.10 °C1028.10 hPa94.00 %6.20 °C 
09:15:006.90 °C1027.80 hPa94.00 %6.00 °C 
09:00:006.80 °C1027.80 hPa94.00 %5.90 °C 
08:45:006.80 °C1027.60 hPa93.00 %5.70 °C 
08:30:006.80 °C1027.50 hPa93.00 %5.70 °C 
08:15:006.70 °C1027.40 hPa93.00 %5.70 °C 
08:00:006.80 °C1027.10 hPa93.00 %5.70 °C 
07:45:006.70 °C1027.10 hPa93.00 %5.70 °C 
07:30:006.60 °C1027.10 hPa93.00 %5.60 °C 
07:15:006.40 °C1026.70 hPa93.00 %5.40 °C 
07:00:006.40 °C1026.60 hPa93.00 %5.40 °C 
06:45:006.40 °C1026.40 hPa93.00 %5.40 °C 
06:30:006.10 °C1026.20 hPa93.00 %5.10 °C 
06:15:005.90 °C1026.20 hPa93.00 %4.90 °C 
06:00:005.60 °C1026.00 hPa93.00 %4.60 °C 
05:45:005.60 °C1025.90 hPa93.00 %4.60 °C 
05:30:005.40 °C1025.80 hPa93.00 %4.40 °C 
05:15:005.30 °C1025.70 hPa93.00 %4.30 °C 
05:00:005.10 °C1025.60 hPa92.00 %3.90 °C 
04:45:005.10 °C1025.50 hPa92.00 %3.90 °C 
04:30:005.00 °C1025.40 hPa92.00 %3.80 °C 
04:15:005.00 °C1025.40 hPa92.00 %3.80 °C 
04:00:004.60 °C1025.20 hPa92.00 %3.40 °C 
03:45:004.30 °C1025.00 hPa91.00 %3.00 °C 
03:30:004.10 °C1025.00 hPa91.00 %2.80 °C 
03:15:004.10 °C1024.90 hPa91.00 %2.80 °C 
03:00:004.20 °C1024.80 hPa91.00 %2.90 °C 
02:45:004.10 °C1024.90 hPa90.00 %2.60 °C 
02:30:003.80 °C1024.80 hPa89.00 %2.20 °C 
02:15:004.10 °C1024.80 hPa90.00 %2.60 °C 
02:00:004.60 °C1024.20 hPa89.00 %2.90 °C 
01:45:005.10 °C1024.40 hPa89.00 %3.40 °C 
01:30:005.60 °C1024.40 hPa89.00 %3.90 °C 
01:15:005.80 °C1024.10 hPa89.00 %2.52 km/hW5.80 °C4.10 °C 
01:00:006.00 °C1024.10 hPa89.00 %4.30 °C 
00:45:005.90 °C1024.00 hPa89.00 %4.20 °C 
00:30:005.50 °C1024.00 hPa89.00 %3.80 °C 
00:15:005.40 °C1024.00 hPa89.00 %3.70 °C 
00:00:005.40 °C1024.00 hPa88.00 %3.24 km/hSW5.40 °C3.60 °C 

Permanenter Link zu dieser Seite: Wetter im Erzgebirge am 07.12.2015
Performance-Info: Die Erstellung der Seite / Statistik(en) / Tabelle(n) erforderte 5 Datenbankserver-Abfrage(n) und dauerte 102 Millisekunden. (Dieser Messwert ist von der Gesamt-Auslastung des Servers abhängig.)
Erzgebirge - Wetter | Erzgebirge - Wetter (Mobilgeräte) | Komplette Klimadatenbank